createdAt,value
2023-10-18T00:03:10.177Z,11.20
2023-10-18T00:07:18.570Z,13.50
2023-10-18T00:11:28.173Z,13.40
2023-10-18T00:15:35.951Z,14.20
2023-10-18T00:19:45.408Z,12.20
2023-10-18T00:23:53.861Z,11.30
2023-10-18T00:28:02.157Z,10.60
2023-10-18T00:32:12.441Z,10.30
2023-10-18T00:36:20.067Z,11.10
2023-10-18T00:40:38.945Z,11.80
2023-10-18T00:44:56.552Z,12.70
2023-10-18T00:49:04.270Z,11.30
2023-10-18T00:53:13.061Z,10.80
2023-10-18T00:57:32.459Z,10.30
2023-10-18T01:01:59.602Z,10.60
2023-10-18T01:06:13.634Z,10.90
2023-10-18T01:10:25.295Z,12.30
2023-10-18T01:14:33.696Z,11.20
2023-10-18T01:18:44.792Z,11.30
2023-10-18T01:22:52.969Z,12.40
2023-10-18T01:27:01.220Z,12.20
2023-10-18T01:31:10.511Z,10.80
2023-10-18T01:35:19.046Z,10.80
2023-10-18T01:39:31.199Z,11.40
2023-10-18T01:43:39.846Z,11.00
2023-10-18T01:47:54.038Z,12.50
2023-10-18T01:52:05.922Z,11.50
2023-10-18T01:56:15.518Z,12.20
2023-10-18T02:00:26.780Z,11.90
2023-10-18T02:04:52.204Z,11.50
2023-10-18T02:09:02.159Z,10.70
2023-10-18T02:13:12.575Z,10.90
2023-10-18T02:17:20.927Z,11.00
2023-10-18T02:21:29.122Z,10.80
2023-10-18T02:25:44.655Z,10.80
2023-10-18T02:29:53.522Z,12.60
2023-10-18T02:34:04.523Z,12.40
2023-10-18T02:38:16.475Z,11.10
2023-10-18T02:42:26.078Z,11.00
2023-10-18T02:46:34.658Z,11.10
2023-10-18T02:50:43.406Z,11.80
2023-10-18T02:54:51.503Z,12.00
2023-10-18T02:59:08.573Z,10.40
2023-10-18T03:03:16.403Z,10.90
2023-10-18T03:07:24.630Z,12.10
2023-10-18T03:11:35.239Z,11.80
2023-10-18T03:16:01.498Z,12.40
2023-10-18T03:20:21.376Z,11.90
2023-10-18T03:24:30.337Z,10.70
2023-10-18T03:28:42.425Z,11.20
2023-10-18T03:32:51.990Z,11.50
2023-10-18T03:37:00.882Z,11.00
2023-10-18T03:41:12.446Z,12.20
2023-10-18T03:45:22.949Z,12.20
2023-10-18T03:49:35.048Z,11.10
2023-10-18T03:53:43.153Z,11.20
2023-10-18T03:57:55.928Z,10.60
2023-10-18T04:02:08.721Z,10.20
2023-10-18T04:06:24.716Z,10.50
2023-10-18T04:10:37.189Z,10.80
2023-10-18T04:14:53.926Z,13.40
2023-10-18T04:19:03.786Z,13.50
2023-10-18T04:23:15.986Z,11.40
2023-10-18T04:27:23.632Z,10.40
2023-10-18T04:31:31.742Z,10.20
2023-10-18T04:35:46.162Z,10.30
2023-10-18T04:39:54.948Z,10.70
2023-10-18T04:44:07.041Z,11.20
2023-10-18T04:48:18.117Z,12.20
2023-10-18T04:52:41.486Z,13.50
2023-10-18T04:56:57.847Z,12.40
2023-10-18T05:01:09.131Z,12.50
2023-10-18T05:05:19.127Z,12.40
2023-10-18T05:09:36.213Z,12.30
2023-10-18T05:13:50.134Z,11.10
2023-10-18T05:18:06.777Z,11.70
2023-10-18T05:22:21.400Z,11.90
2023-10-18T05:26:34.610Z,15.10
2023-10-18T05:31:00.875Z,14.50
2023-10-18T05:35:23.316Z,17.00
2023-10-18T05:39:37.882Z,18.20
2023-10-18T05:43:47.589Z,17.40
2023-10-18T05:47:56.539Z,16.50
2023-10-18T05:56:54.500Z,12.90
2023-10-18T06:01:05.937Z,12.40
2023-10-18T06:05:14.735Z,9.80
2023-10-18T06:09:29.252Z,9.90
2023-10-18T06:13:39.062Z,10.80
2023-10-18T06:17:54.691Z,11.60
2023-10-18T06:22:14.793Z,15.10
2023-10-18T06:26:31.964Z,24.50
2023-10-18T06:30:42.888Z,22.00
2023-10-18T06:34:57.240Z,17.60
2023-10-18T06:39:06.008Z,14.10
2023-10-18T06:43:15.764Z,14.10
2023-10-18T06:47:31.818Z,16.20
2023-10-18T06:51:42.772Z,16.10
2023-10-18T06:56:02.036Z,20.20
2023-10-18T07:00:15.981Z,19.40
2023-10-18T07:04:29.291Z,15.00
2023-10-18T07:08:41.616Z,15.60
2023-10-18T07:12:53.793Z,13.90
2023-10-18T07:17:05.806Z,13.70
2023-10-18T07:21:20.403Z,17.00
2023-10-18T07:25:33.737Z,16.10
2023-10-18T07:29:48.040Z,12.10
2023-10-18T07:33:56.185Z,13.70
2023-10-18T07:38:03.797Z,13.10
2023-10-18T07:42:15.178Z,12.00
2023-10-18T07:46:25.994Z,14.90
2023-10-18T07:50:43.222Z,13.50
2023-10-18T07:54:51.908Z,14.70
2023-10-18T07:59:29.368Z,11.30
2023-10-18T08:03:39.918Z,11.70
2023-10-18T08:07:50.634Z,12.10
2023-10-18T08:11:58.302Z,13.30
2023-10-18T08:16:11.533Z,12.60
2023-10-18T08:20:40.590Z,10.00
2023-10-18T08:24:51.985Z,10.50
2023-10-18T08:29:01.108Z,9.60
2023-10-18T08:33:09.206Z,11.50
2023-10-18T08:37:17.502Z,10.30
2023-10-18T08:41:27.870Z,9.90
2023-10-18T08:45:38.214Z,11.20
2023-10-18T08:49:51.762Z,10.70
2023-10-18T08:54:02.600Z,10.70
2023-10-18T08:58:10.936Z,10.40
2023-10-18T09:02:24.076Z,10.70
2023-10-18T09:06:33.385Z,8.70
2023-10-18T09:10:48.825Z,7.60
2023-10-18T09:14:56.925Z,6.70
2023-10-18T09:19:04.744Z,7.40
2023-10-18T09:23:21.684Z,7.30
2023-10-18T09:27:31.000Z,7.40
2023-10-18T09:31:38.872Z,7.20
2023-10-18T09:35:49.308Z,6.20
2023-10-18T09:39:57.900Z,7.30
2023-10-18T09:44:05.372Z,6.50
2023-10-18T09:48:13.318Z,5.70
2023-10-18T09:52:20.957Z,5.40
2023-10-18T09:56:34.930Z,6.00
2023-10-18T10:00:44.169Z,5.10
2023-10-18T10:04:56.848Z,4.80
2023-10-18T10:09:13.382Z,4.90
2023-10-18T10:13:26.772Z,5.30
2023-10-18T10:17:37.760Z,5.40
2023-10-18T10:21:48.464Z,5.40
2023-10-18T10:26:33.037Z,5.50
2023-10-18T10:30:46.007Z,5.20
2023-10-18T10:34:59.480Z,5.40
2023-10-18T10:39:14.213Z,5.40
2023-10-18T10:43:22.045Z,5.10
2023-10-18T10:47:34.026Z,4.40
2023-10-18T10:51:51.128Z,4.10
2023-10-18T10:55:58.841Z,4.00
2023-10-18T11:00:23.921Z,4.20
2023-10-18T11:05:05.353Z,3.70
2023-10-18T11:09:16.997Z,3.70
2023-10-18T11:13:26.538Z,3.60
2023-10-18T11:17:37.066Z,3.60
2023-10-18T11:21:46.079Z,3.90
2023-10-18T11:25:58.401Z,3.70
2023-10-18T11:30:17.101Z,3.50
2023-10-18T11:34:27.869Z,3.30
2023-10-18T11:38:35.772Z,3.20
2023-10-18T11:42:57.046Z,3.80
2023-10-18T11:47:20.305Z,3.50
2023-10-18T11:51:28.380Z,5.00
2023-10-18T11:55:38.549Z,4.10
2023-10-18T11:59:57.418Z,3.90
2023-10-18T12:04:09.579Z,4.50
2023-10-18T12:08:19.375Z,4.70
2023-10-18T12:12:26.870Z,3.50
2023-10-18T12:16:35.453Z,4.40
2023-10-18T12:20:45.880Z,3.50
2023-10-18T12:24:53.796Z,3.50
2023-10-18T12:29:04.858Z,3.50
2023-10-18T12:33:20.724Z,3.60
2023-10-18T12:37:34.692Z,3.90
2023-10-18T12:41:43.003Z,3.60
2023-10-18T12:45:53.293Z,3.50
2023-10-18T12:50:01.345Z,3.50
2023-10-18T12:54:10.731Z,3.40
2023-10-18T12:58:21.605Z,3.30
2023-10-18T13:02:43.744Z,3.50
2023-10-18T13:06:52.343Z,3.50
2023-10-18T13:11:22.259Z,3.50
2023-10-18T13:15:30.048Z,3.30
2023-10-18T13:19:43.156Z,3.20
2023-10-18T13:23:52.503Z,3.30
2023-10-18T13:28:06.883Z,3.20
2023-10-18T13:32:15.525Z,3.40
2023-10-18T13:36:24.292Z,3.70
2023-10-18T13:40:33.158Z,3.60
2023-10-18T13:44:42.661Z,3.50
2023-10-18T13:48:52.509Z,3.50
2023-10-18T13:53:00.756Z,3.30
2023-10-18T13:57:08.896Z,3.30
2023-10-18T14:01:23.861Z,3.10
2023-10-18T14:05:33.418Z,3.50
2023-10-18T14:09:44.944Z,4.00
2023-10-18T14:13:56.592Z,3.30
2023-10-18T14:18:04.593Z,3.50
2023-10-18T14:22:13.987Z,3.40
2023-10-18T14:26:26.096Z,3.40
2023-10-18T14:30:37.444Z,3.40
2023-10-18T14:34:45.160Z,3.60
2023-10-18T14:38:52.856Z,3.60
2023-10-18T14:43:00.905Z,3.70
2023-10-18T14:47:09.507Z,3.20
2023-10-18T14:51:17.224Z,3.20
2023-10-18T14:55:25.608Z,3.80
2023-10-18T14:59:34.986Z,3.70
2023-10-18T15:03:43.217Z,3.80
2023-10-18T15:07:51.011Z,3.80
2023-10-18T15:11:59.366Z,4.00
2023-10-18T15:16:11.513Z,4.00
2023-10-18T15:20:19.671Z,4.50
2023-10-18T15:24:28.141Z,4.70
2023-10-18T15:28:36.703Z,4.20
2023-10-18T15:32:46.591Z,4.60
2023-10-18T15:36:55.666Z,5.10
2023-10-18T15:41:11.438Z,5.00
2023-10-18T15:45:21.359Z,4.80
2023-10-18T15:49:30.503Z,5.30
2023-10-18T15:53:53.153Z,5.60
2023-10-18T15:58:06.062Z,6.60
2023-10-18T16:02:14.225Z,6.30
2023-10-18T16:06:23.118Z,6.10
2023-10-18T16:10:33.741Z,6.00
2023-10-18T16:14:43.184Z,6.20
2023-10-18T16:18:53.574Z,6.10
2023-10-18T16:23:04.652Z,5.80
2023-10-18T16:27:12.468Z,6.30
2023-10-18T16:31:23.116Z,5.90
2023-10-18T16:35:32.609Z,6.20
2023-10-18T16:39:41.088Z,6.00
2023-10-18T16:43:51.723Z,6.60
2023-10-18T16:48:02.175Z,6.10
2023-10-18T16:52:10.540Z,6.00
2023-10-18T16:56:18.688Z,6.40
2023-10-18T17:00:26.415Z,6.50
2023-10-18T17:04:34.153Z,6.70
2023-10-18T17:08:42.133Z,7.00
2023-10-18T17:12:51.393Z,7.30
2023-10-18T17:17:00.294Z,7.60
2023-10-18T17:25:21.832Z,8.00
2023-10-18T17:29:31.018Z,8.40
2023-10-18T17:33:39.013Z,8.00
2023-10-18T17:37:49.237Z,7.70
2023-10-18T17:41:57.761Z,8.00
2023-10-18T17:46:06.295Z,7.20
2023-10-18T17:50:18.953Z,7.30
2023-10-18T17:54:27.026Z,6.90
2023-10-18T17:58:39.096Z,7.50
2023-10-18T18:02:46.576Z,7.20
2023-10-18T18:06:55.953Z,7.70
2023-10-18T18:11:03.602Z,8.40
2023-10-18T18:15:14.440Z,8.20
2023-10-18T18:19:23.506Z,8.70
2023-10-18T18:23:31.527Z,8.90
2023-10-18T18:27:39.474Z,8.20
2023-10-18T18:31:48.675Z,8.90
2023-10-18T18:35:56.981Z,9.40
2023-10-18T18:40:08.896Z,8.70
2023-10-18T18:44:16.895Z,8.90
2023-10-18T18:48:25.322Z,8.40
2023-10-18T18:52:33.439Z,9.20
2023-10-18T18:56:41.910Z,23.20
2023-10-18T19:00:51.369Z,31.80
2023-10-18T19:04:59.049Z,28.60
2023-10-18T19:09:08.992Z,26.90
2023-10-18T19:13:17.261Z,22.10
2023-10-18T19:17:25.019Z,14.80
2023-10-18T19:21:32.896Z,13.30
2023-10-18T19:25:43.082Z,10.10
2023-10-18T19:29:51.055Z,8.90
2023-10-18T19:33:58.533Z,10.90
2023-10-18T19:38:06.548Z,11.10
2023-10-18T19:42:15.074Z,10.50
2023-10-18T19:46:23.527Z,11.50
2023-10-18T19:50:31.976Z,11.80
2023-10-18T19:54:39.638Z,13.60
2023-10-18T19:58:47.825Z,14.90
2023-10-18T20:02:55.640Z,14.50
2023-10-18T20:07:03.656Z,12.90
2023-10-18T20:11:12.489Z,12.40
2023-10-18T20:15:21.455Z,12.40
2023-10-18T20:19:29.762Z,12.70
2023-10-18T20:23:38.133Z,14.60
2023-10-18T20:27:46.008Z,14.90
2023-10-18T20:31:54.157Z,16.50
2023-10-18T20:36:02.246Z,15.40
2023-10-18T20:40:12.633Z,14.50
2023-10-18T20:44:22.117Z,15.60
2023-10-18T20:48:30.572Z,14.80
2023-10-18T20:52:42.558Z,15.10
2023-10-18T20:57:10.928Z,14.80
2023-10-18T21:01:23.854Z,16.00
2023-10-18T21:05:37.026Z,15.40
2023-10-18T21:09:46.210Z,13.30
2023-10-18T21:13:54.570Z,15.20
2023-10-18T21:18:02.680Z,15.70
2023-10-18T21:22:12.988Z,15.70
2023-10-18T21:26:21.161Z,15.40
2023-10-18T21:30:28.774Z,16.80
2023-10-18T21:34:37.136Z,16.60
2023-10-18T21:38:45.932Z,16.20
2023-10-18T21:42:53.901Z,17.80
2023-10-18T21:47:02.079Z,16.60
2023-10-18T21:51:13.550Z,17.00
2023-10-18T21:55:21.877Z,16.10
2023-10-18T21:59:32.195Z,18.10
2023-10-18T22:03:45.160Z,19.00
2023-10-18T22:07:54.216Z,17.10
2023-10-18T22:12:04.831Z,16.30
2023-10-18T22:16:24.972Z,15.80
2023-10-18T22:20:39.345Z,16.20
2023-10-18T22:24:49.533Z,18.30
2023-10-18T22:28:58.923Z,17.70
2023-10-18T22:33:09.407Z,15.40
2023-10-18T22:37:17.581Z,15.90
2023-10-18T22:41:33.636Z,15.80
2023-10-18T22:45:53.136Z,15.70
2023-10-18T22:50:08.126Z,15.60
2023-10-18T22:54:16.319Z,17.10
2023-10-18T22:58:27.452Z,16.70
2023-10-18T23:02:40.457Z,14.70
2023-10-18T23:06:50.542Z,14.70
2023-10-18T23:11:03.171Z,14.80
2023-10-18T23:15:21.370Z,14.60
2023-10-18T23:19:41.076Z,16.50
2023-10-18T23:24:07.256Z,14.60
2023-10-18T23:28:20.422Z,14.00
2023-10-18T23:32:53.456Z,14.30
2023-10-18T23:37:13.919Z,14.10
2023-10-18T23:41:31.040Z,14.30
2023-10-18T23:45:42.238Z,13.60
2023-10-18T23:50:00.632Z,16.40
2023-10-18T23:54:09.242Z,15.80
2023-10-18T23:58:17.080Z,13.80
